Lake Levels

Lake Updated Head elevation Tail elevation
Buchanan 03/30/2020 4:00 PM 1,017.71 887.31
Inks 03/30/2020 4:00 PM 887.24 824.77
LBJ 03/30/2020 4:00 PM 824.49 736.73
Marble Falls 03/30/2020 4:00 PM 736.37 676.31
Travis 03/30/2020 4:00 PM 672.51 492.04
Austin 03/30/2020 4:00 PM 491.90 428.36
Bastrop 03/30/2020 4:10 PM 449.83 0.00

Upper Basin

Location Updated Stage (ft) Flow (cfs) Bank Full Stage (ft) Flood Stage (ft)
Colorado River at Winchell 03/30/2020 4:10 PM 2.58 23 24.00 26.00
Colorado River near Goldthwaite 03/30/2020 4:10 PM 5.65 69 0.00 0.00
San Saba River at Menard 03/30/2020 4:10 PM 2.81 56 12.00 18.00
San Saba River near Brady 03/30/2020 4:11 PM 2.53 68 16.00 30.00
San Saba River at San Saba 03/30/2020 4:11 PM 3.47 162 20.00 24.00
Colorado River near San Saba 03/30/2020 4:10 PM 2.70 248 25.00 30.00
Lometa 2 WNW 03/30/2020 4:10 PM 1,389.79 0 0.00 0.00
Colorado River at Bend 03/30/2020 4:10 PM 7.25 298 0.00 0.00
Cherokee Creek near Bend 03/30/2020 4:10 PM 4.05 1 0.00 0.00
Lake Buchanan at Cedar Point 03/30/2020 4:10 PM 1,017.68 0 0.00 0.00
Inks Lake at Hwy 29 Bridge 03/30/2020 4:10 PM 887.26 0 0.00 0.00
Lake LBJ at 1431 Bridge 03/30/2020 4:10 PM 824.48 0 0.00 0.00
North Llano River near Roosevelt 03/30/2020 4:10 PM 1.62 0 0.00 0.00
South Llano River at Telegraph 03/30/2020 4:11 PM 2.89 0 0.00 0.00
Llano River near Junction 03/30/2020 4:10 PM 2.35 219 12.00 16.00
Johnson Fork near Junction 03/30/2020 4:10 PM 8.40 17 0.00 0.00
James River near Mason 03/30/2020 4:10 PM 5.82 25 0.00 0.00
Comanche Creek near Mason 03/30/2020 4:10 PM 5.74 1 0.00 0.00
Llano River near Mason 03/30/2020 4:10 PM 1.68 339 6.00 13.00
Willow Creek near Mason 03/30/2020 4:10 PM 5.39 1 0.00 0.00
Hickory Creek near Castell 03/30/2020 4:10 PM 4.84 0 0.00 0.00
San Fernando Creek near Llano 03/30/2020 4:11 PM 7.07 2 0.00 0.00
Johnson Creek near Llano 03/30/2020 4:10 PM 5.56 0 0.00 0.00
Llano River at Llano 03/30/2020 4:10 PM 2.97 311 10.00 10.00
Little Llano River near Llano 03/30/2020 4:10 PM 5.24 0 0.00 0.00
Honey Creek near Kingsland 03/30/2020 4:10 PM 5.72 1 0.00 0.00
Lake LBJ at 2900 Bridge 03/30/2020 4:10 PM 824.50 0 0.00 0.00
Sandy Creek near Willow City 03/30/2020 4:10 PM 3.22 17 0.00 0.00
Sandy Creek near Click 03/30/2020 4:10 PM 942.75 18 0.00 0.00
Sandy Creek near Kingsland 03/30/2020 4:10 PM 5.49 17 8.00 12.00
Walnut Creek near Kingsland 03/30/2020 4:11 PM 5.02 2 0.00 0.00
Lake LBJ at Sandy Harbor 03/30/2020 4:10 PM 824.53 0 0.00 0.00
Backbone Creek at Marble Falls 03/30/2020 4:10 PM 3.55 0 0.00 0.00
Flat Rock Creek near Marble Falls 03/30/2020 4:10 PM 869.26 0 0.00 0.00
Hamilton Creek near Marble Falls 03/30/2020 4:10 PM 6.78 0 0.00 0.00
Pedernales River near Fredericksburg 03/30/2020 4:10 PM 5.84 32 12.00 22.00
South Grape Creek near Luckenbach 03/30/2020 4:10 PM 5.02 0 0.00 0.00
Pedernales River at LBJ Ranch near Stonewall 03/30/2020 4:10 PM 12.36 48 0.00 0.00
North Grape Creek near Johnson City 03/30/2020 4:10 PM 5.40 1 0.00 0.00
Pedernales River near Johnson City 03/30/2020 4:11 PM 10.41 59 13.00 14.00
Miller Creek near Johnson City 03/30/2020 4:10 PM 3.06 0 0.00 0.00
Flat Creek near Pedernales Falls State Park 03/30/2020 4:10 PM 5.14 0 0.00 0.00
Cypress Creek near Cypress Mill 03/30/2020 4:10 PM 6.09 3 0.00 0.00
Cow Creek near Lago Vista 03/30/2020 4:10 PM 5.13 2 0.00 0.00
Big Sandy Creek near Jonestown 03/30/2020 4:10 PM 5.41 0 0.00 0.00

Lower Basin

Location Updated Stage (ft) Flow (cfs) Bank Full Stage (ft) Flood Stage (ft)
Lake Austin below Mansfield Dam 03/30/2020 4:10 PM 492.34 0 0.00 0.00
Lake Austin at Quinlan Park 03/30/2020 4:10 PM 492.77 0 0.00 0.00
Lake Austin at Cortana Shores 03/30/2020 4:10 PM 492.36 0 0.00 0.00
Lake Austin at Bunny Run Farm 03/30/2020 4:10 PM 492.42 0 0.00 0.00
Lady Bird Lake near Longhorn Dam 03/30/2020 4:10 PM 428.33 0 0.00 0.00
Colorado River at Austin 03/30/2020 4:10 PM 13.83 1,552 25.00 33.00
Onion Creek at Buda 03/30/2020 4:10 PM 2.52 0 8.00 15.00
Onion Creek at Hwy 183, Austin 03/30/2020 4:10 PM 5.40 19 15.00 17.00
Gilleland Creek near Manor 03/30/2020 4:10 PM 5.60 20 0.00 0.00
Dry Creek near Elroy 03/30/2020 4:10 PM 5.90 1 0.00 0.00
Colorado River near Utley 03/30/2020 4:10 PM 8.60 813 0.00 0.00
Wilbarger Creek near Elgin 03/30/2020 4:10 PM 5.61 16 0.00 0.00
Big Sandy Creek near Elgin 03/30/2020 4:10 PM 0.85 0 0.00 0.00
Colorado River at Sim Gideon River Plant 03/30/2020 4:10 PM 323.93 0 0.00 0.00
Lake Bastrop at Sim Gideon Power Plant 03/30/2020 4:10 PM 449.83 0 0.00 0.00
Colorado River at Bastrop 03/30/2020 4:10 PM 3.18 871 14.00 23.00
Cedar Creek near Bastrop 03/30/2020 4:10 PM 3.59 0 0.00 0.00
Cedar Creek below Bastrop 03/30/2020 4:10 PM 6.52 0 0.00 0.00
Walnut Creek near Rockne 03/30/2020 4:11 PM 6.58 0 0.00 0.00
Colorado River near Upton 03/30/2020 4:10 PM 8.76 489 0.00 0.00
Colorado River at Smithville 03/30/2020 4:10 PM 1.77 683 10.00 20.00
Colorado River above La Grange 03/30/2020 4:10 PM 2.81 542 19.00 26.00
Buckners Creek near Muldoon 03/30/2020 4:10 PM 2.88 0 0.00 0.00
Lake Fayette at Fayette Power Plant 03/30/2020 4:10 PM 390.02 0 0.00 0.00
Cummins Creek near Frelsburg 03/30/2020 4:10 PM 5.66 0 0.00 27.00
Colorado River at Columbus 03/30/2020 4:10 PM 9.80 540 30.00 34.00
Colorado River at Lakeside River Plant 03/30/2020 4:11 PM 8.33 446 0.00 0.00
Colorado River near Glen Flora 03/30/2020 4:10 PM 76.36 0 0.00 0.00
Colorado River at Wharton 03/30/2020 4:10 PM 8.65 714 20.00 39.00
Colorado River at Bay City 03/30/2020 4:10 PM 4.10 745 23.00 44.00
San Bernard River at East Bernard 03/30/2020 4:10 PM 6.20 1 13.00 17.00
Colorado River at Matagorda 03/30/2020 4:10 PM 1.97 0 4.80 8.80
Blanco River at Blanco 03/30/2020 4:11 PM 12.44 14 0.00 0.00